Time;durP1;ratioP1;P1;durP2;ratioP2;P2;SDS_P1;SDS_P2;PMS_P1;PMS_P2;Temp;Humidity;BMP_temperature;BMP_pressure;BME280_temperature;BME280_humidity;BME280_pressure;Samples;Min_cycle;Max_cycle;Signal;HPM_P1;HPM_P2
2022/07/16 00:03:08;;;;;;;3.25;2.00;;;;;;;;;;4999473;28;20543;-80
2022/07/16 00:05:34;;;;;;;3.22;2.22;;;;;;;;;;5001525;28;20091;-81
2022/07/16 00:08:00;;;;;;;3.20;1.90;;;;;;;;;;4996744;28;20089;-83
2022/07/16 00:10:26;;;;;;;4.15;1.92;;;;;;;;;;4995505;28;20037;-82
2022/07/16 00:12:53;;;;;;;3.30;2.10;;;;;;;;;;4994437;28;20038;-82
2022/07/16 00:15:19;;;;;;;2.95;2.10;;;;;;;;;;4994421;28;20121;-81
2022/07/16 00:17:45;;;;;;;3.00;2.10;;;;;;;;;;4995951;28;20026;-80
2022/07/16 00:20:11;;;;;;;4.13;2.50;;;;;;;;;;4994724;28;20065;-79
2022/07/16 00:22:38;;;;;;;2.90;2.30;;;;;;;;;;4994831;28;20019;-82
2022/07/16 00:25:06;;;;;;;3.58;2.13;;;;;;;;;;4994706;28;20026;-78
2022/07/16 00:27:32;;;;;;;3.88;2.50;;;;;;;;;;4994602;28;20061;-80
2022/07/16 00:29:59;;;;;;;3.95;2.30;;;;;;;;;;4994233;28;20104;-80
2022/07/16 00:32:25;;;;;;;2.80;1.85;;;;;;;;;;4993911;28;20026;-79
2022/07/16 00:34:51;;;;;;;2.83;2.10;;;;;;;;;;4996772;28;20031;-78
2022/07/16 00:37:17;;;;;;;5.22;2.20;;;;;;;;;;4994388;28;20034;-80
2022/07/16 00:39:44;;;;;;;3.53;2.00;;;;;;;;;;4994422;28;20026;-80
2022/07/16 00:42:10;;;;;;;3.00;2.00;;;;;;;;;;4994963;28;20154;-79
2022/07/16 00:44:36;;;;;;;3.83;2.08;;;;;;;;;;4997135;28;20069;-80
2022/07/16 00:47:02;;;;;;;3.40;2.30;;;;;;;;;;4994557;28;20403;-80
2022/07/16 00:49:28;;;;;;;2.90;1.90;;;;;;;;;;4994634;28;20022;-80
2022/07/16 00:51:54;;;;;;;3.33;1.88;;;;;;;;;;4994583;28;20022;-79
2022/07/16 00:54:21;;;;;;;2.75;1.90;;;;;;;;;;4994903;28;20038;-79
2022/07/16 00:56:47;;;;;;;3.35;2.10;;;;;;;;;;4994493;28;20495;-81
2022/07/16 00:59:13;;;;;;;3.97;2.28;;;;;;;;;;4993749;28;20498;-80
2022/07/16 01:01:40;;;;;;;5.07;2.20;;;;;;;;;;4993628;28;20037;-81
2022/07/16 01:04:07;;;;;;;4.15;2.00;;;;;;;;;;4994852;28;20471;-79
2022/07/16 01:06:33;;;;;;;4.32;2.20;;;;;;;;;;4993835;28;20438;-80
2022/07/16 01:10:26;;;;;;;3.90;2.20;;;;;;;;;;5032718;27;20397;-79
2022/07/16 01:12:52;;;;;;;3.50;2.40;;;;;;;;;;5030202;28;20505;-79
2022/07/16 01:15:19;;;;;;;3.70;2.30;;;;;;;;;;5031846;28;20026;-78
2022/07/16 01:17:45;;;;;;;4.57;2.47;;;;;;;;;;5046190;28;20379;-79
2022/07/16 01:20:11;;;;;;;3.38;2.35;;;;;;;;;;5046549;28;20454;-79
2022/07/16 01:22:37;;;;;;;4.07;2.65;;;;;;;;;;5046709;28;20391;-80
2022/07/16 01:25:07;;;;;;;3.50;2.33;;;;;;;;;;5047196;28;20026;-78
2022/07/16 01:27:33;;;;;;;4.47;2.22;;;;;;;;;;5031484;28;20025;-80
2022/07/16 01:30:00;;;;;;;3.25;1.80;;;;;;;;;;5046507;28;20077;-81
2022/07/16 01:32:26;;;;;;;4.45;2.35;;;;;;;;;;5031468;28;20022;-79
2022/07/16 01:34:52;;;;;;;3.47;2.22;;;;;;;;;;5046331;28;20053;-79
2022/07/16 01:37:18;;;;;;;4.72;2.50;;;;;;;;;;5046535;28;20176;-80
2022/07/16 01:39:45;;;;;;;3.90;2.00;;;;;;;;;;5046227;28;20034;-79
2022/07/16 01:42:11;;;;;;;3.58;2.10;;;;;;;;;;5030792;28;20037;-79
2022/07/16 01:44:37;;;;;;;4.15;2.45;;;;;;;;;;5046045;28;20036;-79
2022/07/16 01:47:04;;;;;;;3.95;2.10;;;;;;;;;;5045703;28;20501;-81
2022/07/16 01:49:32;;;;;;;3.22;2.50;;;;;;;;;;5030223;28;20036;-80
2022/07/16 01:52:03;;;;;;;3.50;2.53;;;;;;;;;;5046528;28;20378;-81
2022/07/16 01:54:29;;;;;;;3.65;2.40;;;;;;;;;;5031169;28;20084;-81
2022/07/16 01:56:55;;;;;;;3.72;2.35;;;;;;;;;;5045790;28;20025;-81
2022/07/16 01:59:21;;;;;;;4.97;2.63;;;;;;;;;;5030399;28;20033;-80
2022/07/16 02:01:47;;;;;;;3.92;2.53;;;;;;;;;;5046037;28;20449;-80
2022/07/16 02:04:13;;;;;;;3.42;2.50;;;;;;;;;;5046082;28;20041;-81
2022/07/16 02:06:40;;;;;;;4.78;2.92;;;;;;;;;;5030972;28;20025;-81
2022/07/16 02:09:06;;;;;;;3.83;2.30;;;;;;;;;;5045576;28;20057;-79
2022/07/16 02:11:32;;;;;;;3.42;2.40;;;;;;;;;;5045682;28;20018;-80
2022/07/16 02:13:58;;;;;;;3.47;2.47;;;;;;;;;;5030390;28;20033;-79
2022/07/16 02:16:24;;;;;;;3.00;2.20;;;;;;;;;;5045545;28;20049;-79
2022/07/16 02:18:51;;;;;;;5.00;2.65;;;;;;;;;;5045141;28;20376;-82
2022/07/16 02:21:17;;;;;;;3.80;2.45;;;;;;;;;;5019198;28;20018;-81
2022/07/16 02:23:43;;;;;;;3.85;2.53;;;;;;;;;;5032399;28;20029;-81
2022/07/16 02:26:09;;;;;;;3.08;2.47;;;;;;;;;;5032352;28;20033;-79
2022/07/16 02:28:35;;;;;;;4.53;2.60;;;;;;;;;;5032766;28;20100;-81
2022/07/16 02:31:02;;;;;;;3.80;2.60;;;;;;;;;;5032359;28;20029;-81
2022/07/16 02:33:28;;;;;;;4.20;2.70;;;;;;;;;;5017389;28;20033;-81
2022/07/16 02:35:54;;;;;;;4.35;2.47;;;;;;;;;;5032742;28;20026;-81
2022/07/16 02:38:20;;;;;;;6.63;2.67;;;;;;;;;;5031844;28;20091;-81
2022/07/16 02:40:46;;;;;;;5.47;2.25;;;;;;;;;;5032222;28;20033;-79
2022/07/16 02:43:13;;;;;;;3.72;2.65;;;;;;;;;;5031601;28;20022;-81
2022/07/16 02:45:40;;;;;;;3.95;2.50;;;;;;;;;;5031744;28;20377;-81
2022/07/16 02:48:07;;;;;;;5.28;2.50;;;;;;;;;;5034665;28;20061;-80
2022/07/16 02:50:33;;;;;;;3.38;2.40;;;;;;;;;;5031522;28;20034;-80
2022/07/16 02:52:59;;;;;;;5.05;2.90;;;;;;;;;;5016449;28;20022;-79
2022/07/16 02:55:26;;;;;;;4.65;2.33;;;;;;;;;;5031700;28;20068;-81
2022/07/16 02:57:52;;;;;;;3.42;2.42;;;;;;;;;;5032039;28;20033;-81
2022/07/16 03:00:19;;;;;;;4.70;2.42;;;;;;;;;;5032518;28;20048;-81
2022/07/16 03:02:45;;;;;;;3.60;2.38;;;;;;;;;;5031996;28;20038;-81
2022/07/16 03:05:12;;;;;;;3.28;2.33;;;;;;;;;;5016099;28;20030;-79
2022/07/16 03:07:38;;;;;;;6.35;3.00;;;;;;;;;;5031562;28;20037;-79
2022/07/16 03:10:05;;;;;;;3.28;2.40;;;;;;;;;;5015914;28;20053;-80
2022/07/16 03:12:31;;;;;;;6.85;2.63;;;;;;;;;;5031622;28;20053;-79
2022/07/16 03:14:59;;;;;;;4.25;2.70;;;;;;;;;;5031536;28;20098;-80
2022/07/16 03:17:25;;;;;;;3.22;2.42;;;;;;;;;;5031393;28;20048;-79
2022/07/16 03:19:51;;;;;;;4.05;2.53;;;;;;;;;;5030858;28;20100;-82
2022/07/16 03:22:18;;;;;;;3.38;2.60;;;;;;;;;;5031991;28;20026;-81
2022/07/16 03:24:44;;;;;;;3.53;2.53;;;;;;;;;;5030712;28;20037;-81
2022/07/16 03:27:11;;;;;;;4.75;2.72;;;;;;;;;;5031188;28;20037;-82
2022/07/16 03:29:37;;;;;;;4.68;2.67;;;;;;;;;;5030977;28;20030;-80
2022/07/16 03:32:03;;;;;;;4.13;2.50;;;;;;;;;;5014595;28;20117;-82
2022/07/16 03:34:29;;;;;;;4.32;2.70;;;;;;;;;;5016317;28;20026;-81
2022/07/16 03:36:56;;;;;;;6.03;3.35;;;;;;;;;;5015722;28;20022;-79
2022/07/16 03:39:22;;;;;;;6.13;3.05;;;;;;;;;;5031512;28;20030;-81
2022/07/16 03:41:48;;;;;;;5.45;3.10;;;;;;;;;;5016137;28;20117;-80
2022/07/16 03:44:14;;;;;;;9.63;3.30;;;;;;;;;;5016338;28;20463;-81
2022/07/16 03:46:41;;;;;;;6.13;3.40;;;;;;;;;;5031350;28;20022;-80
2022/07/16 03:49:07;;;;;;;4.60;2.92;;;;;;;;;;5030443;28;20516;-81
2022/07/16 03:51:34;;;;;;;4.65;2.60;;;;;;;;;;5030788;28;20471;-79
2022/07/16 03:54:00;;;;;;;4.68;2.78;;;;;;;;;;5030639;28;20026;-81
2022/07/16 03:56:26;;;;;;;3.97;3.17;;;;;;;;;;5030232;28;20022;-79
2022/07/16 03:58:53;;;;;;;4.55;2.63;;;;;;;;;;5015574;28;20089;-81
2022/07/16 04:01:19;;;;;;;5.15;2.95;;;;;;;;;;5030537;28;20037;-81
2022/07/16 04:03:45;;;;;;;5.32;3.50;;;;;;;;;;5030352;28;20426;-82
2022/07/16 04:06:11;;;;;;;4.35;3.22;;;;;;;;;;5030842;28;20030;-80
2022/07/16 04:08:37;;;;;;;5.72;3.05;;;;;;;;;;5030308;28;20149;-80
2022/07/16 04:11:03;;;;;;;4.38;2.78;;;;;;;;;;5030164;28;20123;-80
2022/07/16 04:13:30;;;;;;;5.97;2.85;;;;;;;;;;5030232;28;20030;-80
2022/07/16 04:15:56;;;;;;;3.60;2.35;;;;;;;;;;5030134;28;20113;-80
2022/07/16 04:18:22;;;;;;;5.75;2.85;;;;;;;;;;5029743;28;20030;-80
2022/07/16 04:20:49;;;;;;;4.95;2.60;;;;;;;;;;5015254;28;20105;-80
2022/07/16 04:23:15;;;;;;;4.30;2.15;;;;;;;;;;5030116;28;20038;-82
2022/07/16 04:25:41;;;;;;;3.97;2.17;;;;;;;;;;5034613;28;20026;-82
2022/07/16 04:28:07;;;;;;;4.78;2.08;;;;;;;;;;5029875;28;20056;-81
2022/07/16 04:30:33;;;;;;;4.10;1.70;;;;;;;;;;5030729;28;20104;-81
2022/07/16 04:33:00;;;;;;;3.88;1.80;;;;;;;;;;5029694;28;20022;-80
2022/07/16 04:35:26;;;;;;;4.90;2.20;;;;;;;;;;5031784;28;20087;-79
2022/07/16 04:37:52;;;;;;;4.85;2.17;;;;;;;;;;5029992;28;20076;-81
2022/07/16 04:40:18;;;;;;;3.90;2.05;;;;;;;;;;5014629;28;20037;-82
2022/07/16 04:42:45;;;;;;;3.75;1.83;;;;;;;;;;5014847;28;20499;-82
2022/07/16 04:45:12;;;;;;;3.78;1.80;;;;;;;;;;5014227;28;20372;-80
2022/07/16 04:47:39;;;;;;;4.15;1.98;;;;;;;;;;5014243;28;20037;-82
2022/07/16 04:50:05;;;;;;;3.38;1.65;;;;;;;;;;5029081;28;20042;-80
2022/07/16 04:52:31;;;;;;;2.63;1.33;;;;;;;;;;5030186;28;20112;-79
2022/07/16 04:54:58;;;;;;;2.95;1.63;;;;;;;;;;5029607;28;20033;-82
2022/07/16 04:57:24;;;;;;;3.65;1.52;;;;;;;;;;5030482;28;20144;-81
2022/07/16 04:59:51;;;;;;;2.90;1.60;;;;;;;;;;5029233;28;20026;-82
2022/07/16 05:05:03;;;;;;;4.22;1.50;;;;;;;;;;5015936;28;20466;-84
2022/07/16 05:07:29;;;;;;;2.90;1.40;;;;;;;;;;5014202;28;20021;-83
2022/07/16 05:09:56;;;;;;;2.97;1.30;;;;;;;;;;5028797;28;20053;-81
2022/07/16 05:12:22;;;;;;;2.58;1.20;;;;;;;;;;5028955;28;20022;-84
2022/07/16 05:14:48;;;;;;;5.18;1.63;;;;;;;;;;5029195;28;20030;-84
2022/07/16 05:17:14;;;;;;;3.50;1.50;;;;;;;;;;5029596;28;20084;-84
2022/07/16 05:19:40;;;;;;;2.55;1.13;;;;;;;;;;5030357;28;20470;-86
2022/07/16 05:22:06;;;;;;;4.13;1.75;;;;;;;;;;5013303;28;20080;-90
2022/07/16 05:24:34;;;;;;;4.05;1.60;;;;;;;;;;5013201;28;20056;-84
2022/07/16 05:27:00;;;;;;;5.07;1.45;;;;;;;;;;5012492;28;20033;-83
2022/07/16 05:29:26;;;;;;;2.58;1.20;;;;;;;;;;5012422;28;20082;-72
2022/07/16 05:31:52;;;;;;;4.97;1.58;;;;;;;;;;5013057;28;20524;-83
2022/07/16 05:34:18;;;;;;;3.10;1.58;;;;;;;;;;5013001;28;20026;-85
2022/07/16 05:36:44;;;;;;;3.13;1.25;;;;;;;;;;5012953;28;20030;-84
2022/07/16 05:39:11;;;;;;;4.43;1.20;;;;;;;;;;5014102;28;20022;-86
2022/07/16 05:41:37;;;;;;;3.88;1.33;;;;;;;;;;5012991;28;20026;-80
2022/07/16 05:44:03;;;;;;;3.13;1.30;;;;;;;;;;5012993;28;20058;-81
2022/07/16 05:46:29;;;;;;;2.38;1.00;;;;;;;;;;5012386;28;20085;-73
2022/07/16 05:48:55;;;;;;;3.78;1.33;;;;;;;;;;5012648;28;20052;-76
2022/07/16 05:51:21;;;;;;;2.65;0.93;;;;;;;;;;5012025;28;20022;-72
2022/07/16 05:53:48;;;;;;;3.55;1.10;;;;;;;;;;5013494;28;20038;-79
2022/07/16 05:56:14;;;;;;;3.03;1.10;;;;;;;;;;5014431;28;20029;-73
2022/07/16 05:58:40;;;;;;;2.95;1.10;;;;;;;;;;5016229;28;20368;-78
2022/07/16 06:01:06;;;;;;;6.10;1.13;;;;;;;;;;5015913;28;20075;-73
2022/07/16 06:03:32;;;;;;;2.85;1.20;;;;;;;;;;5017658;28;20425;-72
2022/07/16 06:05:58;;;;;;;3.45;1.00;;;;;;;;;;5015789;28;20376;-82
2022/07/16 06:08:24;;;;;;;2.00;1.05;;;;;;;;;;5015804;28;20058;-74
2022/07/16 06:10:50;;;;;;;3.53;1.17;;;;;;;;;;5017590;28;20025;-75
2022/07/16 06:13:17;;;;;;;2.05;0.82;;;;;;;;;;5015963;28;20026;-75
2022/07/16 06:15:43;;;;;;;3.80;1.05;;;;;;;;;;5017017;28;20057;-75
2022/07/16 06:18:10;;;;;;;4.82;1.23;;;;;;;;;;5015588;28;20022;-75
2022/07/16 06:20:36;;;;;;;2.45;0.80;;;;;;;;;;5015169;28;20040;-81
2022/07/16 06:23:02;;;;;;;2.65;1.00;;;;;;;;;;5015477;28;20030;-75
2022/07/16 06:25:28;;;;;;;1.85;0.82;;;;;;;;;;5015549;28;20030;-81
2022/07/16 06:27:54;;;;;;;2.80;0.90;;;;;;;;;;5015748;28;20462;-78
2022/07/16 06:30:20;;;;;;;3.67;1.17;;;;;;;;;;5016801;28;20030;-80
2022/07/16 06:32:46;;;;;;;3.33;0.90;;;;;;;;;;5016990;28;20029;-78
2022/07/16 06:35:19;;;;;;;5.43;1.35;;;;;;;;;;5015952;28;20030;-79
2022/07/16 06:37:45;;;;;;;;;;;;;;;;;;5016045;28;20501;-75
2022/07/16 06:40:11;;;;;;;9.25;2.00;;;;;;;;;;5032003;28;19906;-78
2022/07/16 06:42:38;;;;;;;13.00;2.30;;;;;;;;;;5016376;28;20026;-77
2022/07/16 06:45:04;;;;;;;3.55;0.95;;;;;;;;;;5015552;28;20402;-75
2022/07/16 06:47:30;;;;;;;3.00;1.10;;;;;;;;;;5016862;28;20026;-76
2022/07/16 06:49:56;;;;;;;2.25;0.90;;;;;;;;;;5014761;28;20040;-74
2022/07/16 06:52:22;;;;;;;3.63;0.90;;;;;;;;;;5014886;28;20034;-75
2022/07/16 06:54:48;;;;;;;2.70;1.00;;;;;;;;;;5015085;28;20022;-78
2022/07/16 06:57:14;;;;;;;4.05;1.13;;;;;;;;;;5015384;28;20053;-82
2022/07/16 06:59:41;;;;;;;3.22;0.85;;;;;;;;;;5015114;28;20058;-81
2022/07/16 07:02:07;;;;;;;2.95;0.82;;;;;;;;;;5016278;28;20033;-80
2022/07/16 07:04:33;;;;;;;3.10;1.10;;;;;;;;;;5016682;28;20076;-78
2022/07/16 07:06:59;;;;;;;2.65;0.93;;;;;;;;;;5014708;28;20394;-82
2022/07/16 07:09:25;;;;;;;2.97;0.90;;;;;;;;;;5014999;28;20207;-79
2022/07/16 07:11:51;;;;;;;3.60;1.10;;;;;;;;;;5016282;28;20025;-78
2022/07/16 07:14:18;;;;;;;4.63;1.20;;;;;;;;;;5016093;28;20061;-79
2022/07/16 07:16:44;;;;;;;2.85;0.80;;;;;;;;;;5015730;28;20378;-79
2022/07/16 07:19:10;;;;;;;7.25;2.03;;;;;;;;;;5014715;28;20024;-88
2022/07/16 07:21:36;;;;;;;3.33;1.10;;;;;;;;;;5014839;28;20025;-82
2022/07/16 07:24:03;;;;;;;3.33;0.95;;;;;;;;;;5015004;28;20025;-79
2022/07/16 07:26:29;;;;;;;3.47;1.40;;;;;;;;;;5016359;28;20088;-82
2022/07/16 07:28:55;;;;;;;3.75;1.23;;;;;;;;;;5014304;28;20045;-75
2022/07/16 07:31:21;;;;;;;4.05;0.93;;;;;;;;;;5014082;28;20499;-76
2022/07/16 07:33:48;;;;;;;3.50;1.10;;;;;;;;;;5015430;28;20030;-76
2022/07/16 07:36:14;;;;;;;3.17;1.00;;;;;;;;;;5015700;28;20072;-75
2022/07/16 07:38:40;;;;;;;2.65;0.90;;;;;;;;;;5015973;28;20109;-76
2022/07/16 07:41:06;;;;;;;2.80;0.80;;;;;;;;;;5015766;28;20029;-78
2022/07/16 07:43:33;;;;;;;2.13;0.80;;;;;;;;;;5014146;28;20044;-86
2022/07/16 07:45:59;;;;;;;3.47;1.20;;;;;;;;;;5015358;28;20441;-82
2022/07/16 07:48:25;;;;;;;3.28;1.00;;;;;;;;;;5015092;28;20060;-87
2022/07/16 07:50:51;;;;;;;2.65;1.10;;;;;;;;;;5015902;28;20029;-84
2022/07/16 07:53:17;;;;;;;4.65;1.30;;;;;;;;;;5015881;28;20025;-90
2022/07/16 07:55:47;;;;;;;10.45;1.75;;;;;;;;;;5015532;28;20036;-95
2022/07/16 07:58:13;;;;;;;2.17;0.80;;;;;;;;;;5014751;28;20037;-90
2022/07/16 08:00:40;;;;;;;3.45;1.10;;;;;;;;;;5015552;28;20018;-93
2022/07/16 08:03:07;;;;;;;3.88;0.80;;;;;;;;;;5014703;28;20077;-88
2022/07/16 08:05:33;;;;;;;4.30;1.05;;;;;;;;;;5014463;28;20125;-91
2022/07/16 08:07:59;;;;;;;2.58;1.00;;;;;;;;;;5015101;28;20080;-90
2022/07/16 08:10:26;;;;;;;2.78;1.00;;;;;;;;;;5013788;28;20140;-79
2022/07/16 08:12:52;;;;;;;2.28;0.90;;;;;;;;;;5014241;28;20113;-79
2022/07/16 08:15:18;;;;;;;2.28;1.02;;;;;;;;;;5013376;28;20432;-85
2022/07/16 08:17:44;;;;;;;2.78;0.93;;;;;;;;;;5013127;28;20079;-83
2022/07/16 08:20:11;;;;;;;2.90;0.80;;;;;;;;;;5013367;28;20030;-79
2022/07/16 08:22:37;;;;;;;4.03;1.15;;;;;;;;;;5013394;28;20018;-89
2022/07/16 08:27:49;;;;;;;2.33;0.80;;;;;;;;;;5014802;28;20087;-81
2022/07/16 08:30:15;;;;;;;2.40;0.95;;;;;;;;;;5014052;28;20045;-79
2022/07/16 08:32:45;;;;;;;2.88;1.15;;;;;;;;;;5014064;28;20029;-83
2022/07/16 08:35:11;;;;;;;3.78;1.17;;;;;;;;;;5014493;28;20026;-78
2022/07/16 08:37:39;;;;;;;3.17;0.90;;;;;;;;;;5013422;28;20394;-79
2022/07/16 08:40:07;;;;;;;3.80;0.93;;;;;;;;;;5013649;28;20026;-85
2022/07/16 08:42:33;;;;;;;10.55;1.08;;;;;;;;;;5012933;28;20179;-83
2022/07/16 08:45:00;;;;;;;3.08;1.30;;;;;;;;;;5012873;28;20044;-80
2022/07/16 08:47:27;;;;;;;2.75;1.15;;;;;;;;;;5014023;28;20029;-78
2022/07/16 08:49:56;;;;;;;2.75;1.17;;;;;;;;;;5012880;28;20030;-82
2022/07/16 08:52:25;;;;;;;3.40;1.30;;;;;;;;;;5013175;28;20391;-81
2022/07/16 08:54:52;;;;;;;3.13;0.80;;;;;;;;;;5013937;28;20024;-79
2022/07/16 08:57:19;;;;;;;5.18;0.90;;;;;;;;;;5014488;28;20518;-79
2022/07/16 08:59:45;;;;;;;1.90;0.90;;;;;;;;;;5013485;28;20038;-80
2022/07/16 09:02:12;;;;;;;4.07;1.13;;;;;;;;;;5012797;28;20033;-83
2022/07/16 09:04:39;;;;;;;3.13;1.23;;;;;;;;;;5013969;28;20029;-77
2022/07/16 09:07:06;;;;;;;3.58;0.90;;;;;;;;;;5014077;28;20069;-79
2022/07/16 09:09:32;;;;;;;4.47;1.05;;;;;;;;;;5013649;28;20054;-83
2022/07/16 09:11:58;;;;;;;2.13;0.82;;;;;;;;;;5012716;28;20053;-81
2022/07/16 09:14:24;;;;;;;3.20;1.20;;;;;;;;;;5013132;28;20135;-82
2022/07/16 09:16:53;;;;;;;2.95;0.90;;;;;;;;;;5013056;28;20022;-81
2022/07/16 09:19:21;;;;;;;1.63;0.90;;;;;;;;;;5013168;28;20033;-81
2022/07/16 09:22:07;;;;;;;5.10;1.23;;;;;;;;;;5012615;28;20466;-83
2022/07/16 09:24:54;;;;;;;2.15;1.15;;;;;;;;;;5014425;28;20037;-88
2022/07/16 09:27:24;;;;;;;2.20;1.00;;;;;;;;;;5014071;28;20026;-79
2022/07/16 09:29:51;;;;;;;4.57;1.38;;;;;;;;;;5014752;28;20073;-86
2022/07/16 09:32:34;;;;;;;3.60;1.20;;;;;;;;;;5016893;28;20026;-80
2022/07/16 09:35:20;;;;;;;2.67;1.25;;;;;;;;;;5017933;28;20499;-83
2022/07/16 09:37:48;;;;;;;2.58;1.20;;;;;;;;;;5016801;28;20478;-87
2022/07/16 09:40:14;;;;;;;3.72;1.20;;;;;;;;;;5020931;28;20040;-90
2022/07/16 09:42:41;;;;;;;2.88;1.10;;;;;;;;;;5017328;28;20026;-88
2022/07/16 09:45:07;;;;;;;3.17;1.27;;;;;;;;;;5017952;28;20028;-88
2022/07/16 09:47:34;;;;;;;2.80;1.38;;;;;;;;;;5021508;28;20076;-85
2022/07/16 09:50:07;;;;;;;2.53;1.20;;;;;;;;;;5017985;28;20022;-93
2022/07/16 09:52:34;;;;;;;7.60;1.25;;;;;;;;;;5019696;28;20120;-94
2022/07/16 09:55:01;;;;;;;2.63;1.05;;;;;;;;;;5017969;28;20489;-88
2022/07/16 09:57:28;;;;;;;4.97;1.17;;;;;;;;;;5021666;28;20024;-88
2022/07/16 09:59:55;;;;;;;2.25;1.13;;;;;;;;;;5018488;28;20467;-91
2022/07/16 10:02:22;;;;;;;6.65;1.17;;;;;;;;;;5017963;28;20029;-93
2022/07/16 10:04:49;;;;;;;1.73;0.80;;;;;;;;;;5016867;28;20574;-88
2022/07/16 10:07:17;;;;;;;2.58;1.20;;;;;;;;;;5016441;28;20482;-85
2022/07/16 10:09:43;;;;;;;2.30;1.08;;;;;;;;;;5017379;28;20049;-85
2022/07/16 10:12:11;;;;;;;2.47;1.10;;;;;;;;;;5015748;28;20034;-88
2022/07/16 10:14:39;;;;;;;3.25;1.27;;;;;;;;;;5017121;28;20037;-82
2022/07/16 10:17:15;;;;;;;3.97;1.13;;;;;;;;;;5017845;28;20013;-88
2022/07/16 10:19:42;;;;;;;3.78;1.17;;;;;;;;;;5018411;28;20037;-92
2022/07/16 10:22:20;;;;;;;7.03;2.25;;;;;;;;;;5018208;28;20048;-88
2022/07/16 10:24:52;;;;;;;3.08;1.23;;;;;;;;;;5018645;28;20029;-91
2022/07/16 10:27:35;;;;;;;7.25;1.75;;;;;;;;;;5018209;28;20034;-89
2022/07/16 10:30:15;;;;;;;10.30;1.92;;;;;;;;;;5018548;28;20022;-87
2022/07/16 10:32:59;;;;;;;5.45;1.50;;;;;;;;;;5018270;28;20026;-92
2022/07/16 10:35:31;;;;;;;13.68;1.58;;;;;;;;;;5018102;28;20065;-90
2022/07/16 10:38:21;;;;;;;12.32;2.58;;;;;;;;;;5018049;28;20505;-92
2022/07/16 10:41:04;;;;;;;14.60;3.00;;;;;;;;;;5017455;28;20030;-88
2022/07/16 10:43:30;;;;;;;4.57;1.45;;;;;;;;;;5018159;28;20029;-90
2022/07/16 10:45:58;;;;;;;4.60;1.33;;;;;;;;;;5019240;28;20022;-87
2022/07/16 10:48:25;;;;;;;3.88;1.73;;;;;;;;;;5016418;28;20034;-84
2022/07/16 10:51:10;;;;;;;12.77;3.05;;;;;;;;;;5017170;28;20030;-89
2022/07/16 10:53:56;;;;;;;11.85;2.63;;;;;;;;;;5017030;28;20117;-90
2022/07/16 10:56:32;;;;;;;17.33;3.03;;;;;;;;;;5018997;28;20033;-85
2022/07/16 10:58:58;;;;;;;20.88;3.63;;;;;;;;;;5015932;28;20026;-84
2022/07/16 11:01:24;;;;;;;15.63;3.13;;;;;;;;;;5015149;28;20030;-84
2022/07/16 11:03:53;;;;;;;25.48;3.75;;;;;;;;;;5017343;28;20022;-86
2022/07/16 11:06:21;;;;;;;6.90;1.77;;;;;;;;;;5017284;28;20026;-89
2022/07/16 11:08:47;;;;;;;6.63;2.15;;;;;;;;;;5015923;28;20054;-86
2022/07/16 11:11:14;;;;;;;7.30;1.90;;;;;;;;;;5015944;28;20072;-85
2022/07/16 11:13:41;;;;;;;10.00;1.90;;;;;;;;;;5018578;28;20453;-88
2022/07/16 11:16:08;;;;;;;4.57;1.70;;;;;;;;;;5017098;28;20064;-88
2022/07/16 11:18:38;;;;;;;17.63;3.17;;;;;;;;;;5016162;28;20041;-86
2022/07/16 11:21:08;;;;;;;11.77;3.38;;;;;;;;;;5016230;28;20033;-85
2022/07/16 11:23:48;;;;;;;17.92;1.90;;;;;;;;;;5015909;28;20037;-93
2022/07/16 11:26:14;;;;;;;4.28;1.80;;;;;;;;;;5016261;28;20026;-88
2022/07/16 11:29:00;;;;;;;3.88;1.60;;;;;;;;;;5015931;28;20033;-88
2022/07/16 11:31:30;;;;;;;5.40;1.40;;;;;;;;;;5016435;28;20026;-90
2022/07/16 11:34:18;;;;;;;4.55;1.67;;;;;;;;;;5015574;28;20030;-88
2022/07/16 11:36:48;;;;;;;3.80;1.40;;;;;;;;;;5016719;28;20014;-88
2022/07/16 11:39:25;;;;;;;4.20;1.73;;;;;;;;;;5015465;28;20044;-84
2022/07/16 11:41:52;;;;;;;2.60;1.67;;;;;;;;;;5015201;28;20044;-88
2022/07/16 11:44:23;;;;;;;4.90;1.70;;;;;;;;;;5015791;28;20018;-84
2022/07/16 11:46:53;;;;;;;3.95;1.85;;;;;;;;;;5016156;28;20037;-85
2022/07/16 11:49:26;;;;;;;8.85;1.60;;;;;;;;;;5014541;28;20030;-84
2022/07/16 11:51:53;;;;;;;6.90;1.90;;;;;;;;;;5014802;28;20022;-87
2022/07/16 11:54:20;;;;;;;6.45;1.70;;;;;;;;;;5014154;28;20038;-85
2022/07/16 11:56:46;;;;;;;3.78;1.70;;;;;;;;;;5014224;28;20038;-82
2022/07/16 11:59:32;;;;;;;4.78;1.70;;;;;;;;;;5014632;28;20033;-84
2022/07/16 12:01:58;;;;;;;2.85;1.52;;;;;;;;;;5015526;28;20435;-87
2022/07/16 12:04:41;;;;;;;3.38;1.40;;;;;;;;;;5015821;28;20033;-87
2022/07/16 12:07:08;;;;;;;4.68;1.65;;;;;;;;;;5015307;28;20049;-84
2022/07/16 12:09:39;;;;;;;3.13;1.60;;;;;;;;;;5014041;28;20049;-85
2022/07/16 12:12:11;;;;;;;3.47;1.60;;;;;;;;;;5014793;28;20479;-84
2022/07/16 12:14:57;;;;;;;3.90;1.85;;;;;;;;;;5014784;28;20030;-84
2022/07/16 12:17:31;;;;;;;4.82;1.60;;;;;;;;;;5014487;28;20034;-81
2022/07/16 12:20:17;;;;;;;3.50;1.73;;;;;;;;;;5014367;28;20030;-83
2022/07/16 12:22:43;;;;;;;4.60;1.50;;;;;;;;;;5014201;28;20033;-85
2022/07/16 12:25:18;;;;;;;4.07;1.83;;;;;;;;;;5013482;28;20033;-81
2022/07/16 12:27:52;;;;;;;5.32;1.40;;;;;;;;;;5013625;28;20037;-80
2022/07/16 12:30:18;;;;;;;5.03;2.00;;;;;;;;;;5012961;28;20524;-80
2022/07/16 12:32:48;;;;;;;2.45;1.60;;;;;;;;;;5014095;28;20022;-82
2022/07/16 12:35:33;;;;;;;3.63;1.80;;;;;;;;;;5013526;28;20113;-82
2022/07/16 12:37:59;;;;;;;7.22;1.70;;;;;;;;;;5013241;28;20129;-80
2022/07/16 12:40:25;;;;;;;5.78;1.40;;;;;;;;;;5012855;28;20042;-82
2022/07/16 12:42:51;;;;;;;3.40;1.27;;;;;;;;;;5013845;28;20113;-80
2022/07/16 12:45:17;;;;;;;2.70;1.38;;;;;;;;;;5011858;28;20063;-80
2022/07/16 12:47:44;;;;;;;4.35;1.23;;;;;;;;;;5012388;28;20046;-79
2022/07/16 12:50:10;;;;;;;3.97;1.40;;;;;;;;;;5014539;28;20026;-80
2022/07/16 12:52:36;;;;;;;2.58;1.30;;;;;;;;;;5029713;28;20037;-81
2022/07/16 13:00:34;;;;;;;3.22;1.67;;;;;;;;;;5014233;28;20045;-81
2022/07/16 13:03:00;;;;;;;3.22;1.65;;;;;;;;;;5030043;28;20479;-81
2022/07/16 13:05:26;;;;;;;4.05;1.55;;;;;;;;;;5029314;28;20065;-79
2022/07/16 13:07:52;;;;;;;3.35;1.48;;;;;;;;;;5030182;28;20049;-82
2022/07/16 13:10:18;;;;;;;2.90;1.63;;;;;;;;;;5014226;28;20070;-79
2022/07/16 13:12:45;;;;;;;3.15;1.67;;;;;;;;;;5029414;28;20034;-82
2022/07/16 13:15:11;;;;;;;12.13;1.67;;;;;;;;;;5029647;28;20033;-84
2022/07/16 13:17:37;;;;;;;3.60;1.50;;;;;;;;;;5014150;28;20028;-82
2022/07/16 13:20:03;;;;;;;4.22;1.60;;;;;;;;;;5029893;28;20060;-79
2022/07/16 13:22:29;;;;;;;7.18;1.70;;;;;;;;;;5024560;28;20022;-80
2022/07/16 13:24:56;;;;;;;3.60;1.55;;;;;;;;;;5028155;28;20034;-81
2022/07/16 13:27:22;;;;;;;7.95;2.20;;;;;;;;;;5012976;28;20467;-78
2022/07/16 13:29:48;;;;;;;2.80;1.65;;;;;;;;;;5012658;28;20029;-78
2022/07/16 13:32:14;;;;;;;4.35;1.33;;;;;;;;;;5011825;28;20030;-80
2022/07/16 13:34:41;;;;;;;5.47;1.75;;;;;;;;;;5013213;28;20033;-78
2022/07/16 13:37:07;;;;;;;3.97;1.70;;;;;;;;;;5013104;28;20022;-78
2022/07/16 13:39:33;;;;;;;2.60;1.40;;;;;;;;;;5010748;28;20040;-80
2022/07/16 13:41:59;;;;;;;3.92;1.60;;;;;;;;;;5027003;28;20030;-78
2022/07/16 13:44:26;;;;;;;3.97;1.60;;;;;;;;;;5009672;28;20422;-81
2022/07/16 13:46:52;;;;;;;4.13;1.60;;;;;;;;;;5011923;28;20022;-80
2022/07/16 13:49:19;;;;;;;5.78;1.73;;;;;;;;;;5013329;28;20061;-80
2022/07/16 13:51:46;;;;;;;3.60;1.58;;;;;;;;;;5011408;28;20026;-86
2022/07/16 13:54:13;;;;;;;4.30;1.58;;;;;;;;;;5029187;28;20510;-81
2022/07/16 13:56:39;;;;;;;2.83;1.63;;;;;;;;;;5029237;28;20431;-82
2022/07/16 13:59:05;;;;;;;3.95;1.95;;;;;;;;;;5025541;28;20042;-80
2022/07/16 14:01:31;;;;;;;4.85;1.73;;;;;;;;;;5017100;28;20029;-88
2022/07/16 14:03:57;;;;;;;3.63;1.80;;;;;;;;;;5012827;28;20104;-84
2022/07/16 14:06:24;;;;;;;2.97;1.40;;;;;;;;;;5014854;28;20034;-83
2022/07/16 14:08:50;;;;;;;3.15;1.50;;;;;;;;;;5011053;28;20053;-80
2022/07/16 14:11:16;;;;;;;3.35;1.67;;;;;;;;;;5008089;28;20086;-88
2022/07/16 14:13:42;;;;;;;4.60;1.50;;;;;;;;;;5011805;28;20022;-79
2022/07/16 14:16:08;;;;;;;7.15;1.60;;;;;;;;;;5012597;28;20026;-81
2022/07/16 14:18:35;;;;;;;3.38;1.60;;;;;;;;;;5016020;28;20025;-83
2022/07/16 14:21:01;;;;;;;6.45;1.60;;;;;;;;;;5016227;28;20084;-81
2022/07/16 14:23:29;;;;;;;4.75;1.60;;;;;;;;;;5021102;28;20033;-80
2022/07/16 14:25:55;;;;;;;6.10;1.52;;;;;;;;;;5032346;28;20084;-80
2022/07/16 14:28:24;;;;;;;4.93;1.50;;;;;;;;;;5032582;28;20030;-96
2022/07/16 14:30:50;;;;;;;5.03;1.80;;;;;;;;;;5032162;28;20489;-79
2022/07/16 14:33:17;;;;;;;5.10;1.45;;;;;;;;;;5031797;28;20037;-80
2022/07/16 14:35:43;;;;;;;4.18;1.67;;;;;;;;;;5032931;28;20037;-82
2022/07/16 14:38:09;;;;;;;2.42;1.50;;;;;;;;;;5032457;28;20034;-80
2022/07/16 14:40:36;;;;;;;5.28;1.60;;;;;;;;;;5031824;28;20529;-86
2022/07/16 14:43:02;;;;;;;4.68;1.50;;;;;;;;;;5034480;28;20026;-81
2022/07/16 14:45:28;;;;;;;4.10;1.40;;;;;;;;;;5016885;28;20470;-79
2022/07/16 14:47:54;;;;;;;3.10;1.50;;;;;;;;;;5031922;28;20059;-82
2022/07/16 14:50:21;;;;;;;3.25;1.58;;;;;;;;;;5032175;28;20022;-83
2022/07/16 14:52:47;;;;;;;3.17;1.35;;;;;;;;;;5032443;28;20034;-81
2022/07/16 14:55:14;;;;;;;4.30;1.55;;;;;;;;;;5016924;28;20141;-80
2022/07/16 14:57:40;;;;;;;3.83;1.27;;;;;;;;;;5032078;28;20506;-82
2022/07/16 15:00:08;;;;;;;5.20;1.38;;;;;;;;;;5032220;28;20402;-80